sensor_id;sensor_type;location;lat;lon;timestamp;temperature;humidity
12446;DHT22;6287;50.984;7.022;2023-01-28T00:00:08;3.20;99.90
12446;DHT22;6287;50.984;7.022;2023-01-28T00:02:34;3.10;99.90
12446;DHT22;6287;50.984;7.022;2023-01-28T00:05:00;3.00;99.90
12446;DHT22;6287;50.984;7.022;2023-01-28T00:07:26;2.90;99.90
12446;DHT22;6287;50.984;7.022;2023-01-28T00:09:52;2.90;99.90
12446;DHT22;6287;50.984;7.022;2023-01-28T00:12:17;2.80;99.90
12446;DHT22;6287;50.984;7.022;2023-01-28T00:14:43;2.80;99.90
12446;DHT22;6287;50.984;7.022;2023-01-28T00:17:10;2.80;99.90
12446;DHT22;6287;50.984;7.022;2023-01-28T00:19:41;2.70;99.90
12446;DHT22;6287;50.984;7.022;2023-01-28T00:22:06;2.60;99.90
12446;DHT22;6287;50.984;7.022;2023-01-28T00:24:34;2.50;99.90
12446;DHT22;6287;50.984;7.022;2023-01-28T00:27:00;2.40;99.90
12446;DHT22;6287;50.984;7.022;2023-01-28T00:29:25;2.40;99.90
12446;DHT22;6287;50.984;7.022;2023-01-28T00:31:51;2.30;99.90
12446;DHT22;6287;50.984;7.022;2023-01-28T00:34:17;2.20;99.90
12446;DHT22;6287;50.984;7.022;2023-01-28T00:36:47;2.10;99.90
12446;DHT22;6287;50.984;7.022;2023-01-28T00:39:23;2.00;99.90
12446;DHT22;6287;50.984;7.022;2023-01-28T00:41:49;2.00;99.90
12446;DHT22;6287;50.984;7.022;2023-01-28T00:44:18;1.90;99.90
12446;DHT22;6287;50.984;7.022;2023-01-28T00:46:49;1.80;99.90
12446;DHT22;6287;50.984;7.022;2023-01-28T00:49:17;1.80;99.90
12446;DHT22;6287;50.984;7.022;2023-01-28T00:51:47;1.80;99.90
12446;DHT22;6287;50.984;7.022;2023-01-28T00:54:13;1.80;99.90
12446;DHT22;6287;50.984;7.022;2023-01-28T00:56:41;1.70;99.90
12446;DHT22;6287;50.984;7.022;2023-01-28T00:59:07;1.70;99.90
12446;DHT22;6287;50.984;7.022;2023-01-28T01:01:32;1.60;99.90
12446;DHT22;6287;50.984;7.022;2023-01-28T01:03:58;1.60;99.90
12446;DHT22;6287;50.984;7.022;2023-01-28T01:06:35;1.60;99.90
12446;DHT22;6287;50.984;7.022;2023-01-28T01:09:02;1.50;99.90
12446;DHT22;6287;50.984;7.022;2023-01-28T01:11:29;1.50;99.90
12446;DHT22;6287;50.984;7.022;2023-01-28T01:13:56;1.40;99.90
12446;DHT22;6287;50.984;7.022;2023-01-28T01:16:28;1.30;99.90
12446;DHT22;6287;50.984;7.022;2023-01-28T01:18:59;1.30;99.90
12446;DHT22;6287;50.984;7.022;2023-01-28T01:21:28;1.30;99.90
12446;DHT22;6287;50.984;7.022;2023-01-28T01:23:57;1.30;99.90
12446;DHT22;6287;50.984;7.022;2023-01-28T01:26:25;1.20;99.90
12446;DHT22;6287;50.984;7.022;2023-01-28T01:28:56;1.20;99.90
12446;DHT22;6287;50.984;7.022;2023-01-28T01:31:24;1.20;99.90
12446;DHT22;6287;50.984;7.022;2023-01-28T01:33:51;1.10;99.90
12446;DHT22;6287;50.984;7.022;2023-01-28T01:36:17;1.10;99.90
12446;DHT22;6287;50.984;7.022;2023-01-28T01:38:46;1.00;99.90
12446;DHT22;6287;50.984;7.022;2023-01-28T01:41:23;1.00;99.90
12446;DHT22;6287;50.984;7.022;2023-01-28T01:43:58;1.00;99.90
12446;DHT22;6287;50.984;7.022;2023-01-28T01:46:31;1.00;99.90
12446;DHT22;6287;50.984;7.022;2023-01-28T01:49:22;1.00;99.90
12446;DHT22;6287;50.984;7.022;2023-01-28T01:51:54;0.90;99.90
12446;DHT22;6287;50.984;7.022;2023-01-28T01:54:23;0.90;99.90
12446;DHT22;6287;50.984;7.022;2023-01-28T01:56:49;0.90;99.90
12446;DHT22;6287;50.984;7.022;2023-01-28T01:59:23;0.80;99.90
12446;DHT22;6287;50.984;7.022;2023-01-28T02:01:50;0.70;99.90
12446;DHT22;6287;50.984;7.022;2023-01-28T02:04:28;0.70;99.90
12446;DHT22;6287;50.984;7.022;2023-01-28T02:06:56;0.60;99.90
12446;DHT22;6287;50.984;7.022;2023-01-28T02:09:32;0.60;99.90
12446;DHT22;6287;50.984;7.022;2023-01-28T02:12:06;0.50;99.90
12446;DHT22;6287;50.984;7.022;2023-01-28T02:14:38;0.50;99.90
12446;DHT22;6287;50.984;7.022;2023-01-28T02:17:08;0.50;99.90
12446;DHT22;6287;50.984;7.022;2023-01-28T02:19:45;0.50;99.90
12446;DHT22;6287;50.984;7.022;2023-01-28T02:28:16;0.30;99.90
12446;DHT22;6287;50.984;7.022;2023-01-28T02:31:00;0.30;99.90
12446;DHT22;6287;50.984;7.022;2023-01-28T02:39:02;0.30;99.90
12446;DHT22;6287;50.984;7.022;2023-01-28T02:41:37;0.30;99.90
12446;DHT22;6287;50.984;7.022;2023-01-28T02:44:08;0.30;99.90
12446;DHT22;6287;50.984;7.022;2023-01-28T02:46:35;0.20;99.90
12446;DHT22;6287;50.984;7.022;2023-01-28T02:49:29;0.20;99.90
12446;DHT22;6287;50.984;7.022;2023-01-28T02:52:11;0.20;99.90
12446;DHT22;6287;50.984;7.022;2023-01-28T02:58:00;0.10;99.90
12446;DHT22;6287;50.984;7.022;2023-01-28T03:03:19;0.10;99.90
12446;DHT22;6287;50.984;7.022;2023-01-28T03:05:54;0.10;99.90
12446;DHT22;6287;50.984;7.022;2023-01-28T03:08:43;0.10;99.90
12446;DHT22;6287;50.984;7.022;2023-01-28T03:11:32;0.10;99.90
12446;DHT22;6287;50.984;7.022;2023-01-28T03:14:19;0.10;99.90
12446;DHT22;6287;50.984;7.022;2023-01-28T03:17:09;0.10;99.90
12446;DHT22;6287;50.984;7.022;2023-01-28T03:19:56;0.00;99.90
12446;DHT22;6287;50.984;7.022;2023-01-28T03:22:45;0.00;99.90
12446;DHT22;6287;50.984;7.022;2023-01-28T03:25:30;0.00;99.90
12446;DHT22;6287;50.984;7.022;2023-01-28T03:28:19;0.00;99.90
12446;DHT22;6287;50.984;7.022;2023-01-28T03:31:08;0.00;99.90
12446;DHT22;6287;50.984;7.022;2023-01-28T03:33:53;0.00;99.90
12446;DHT22;6287;50.984;7.022;2023-01-28T03:36:42;0.00;99.90
12446;DHT22;6287;50.984;7.022;2023-01-28T03:39:16;0.00;99.90
12446;DHT22;6287;50.984;7.022;2023-01-28T03:42:04;0.00;99.90
12446;DHT22;6287;50.984;7.022;2023-01-28T03:44:32;0.00;99.90
12446;DHT22;6287;50.984;7.022;2023-01-28T03:47:16;0.00;99.90
12446;DHT22;6287;50.984;7.022;2023-01-28T03:49:44;0.00;99.90
12446;DHT22;6287;50.984;7.022;2023-01-28T03:52:12;0.10;99.90
12446;DHT22;6287;50.984;7.022;2023-01-28T03:54:38;0.10;99.90
12446;DHT22;6287;50.984;7.022;2023-01-28T03:57:04;0.10;99.90
12446;DHT22;6287;50.984;7.022;2023-01-28T03:59:34;0.10;99.90
12446;DHT22;6287;50.984;7.022;2023-01-28T04:02:00;0.10;99.90
12446;DHT22;6287;50.984;7.022;2023-01-28T04:04:28;0.10;99.90
12446;DHT22;6287;50.984;7.022;2023-01-28T04:06:59;0.10;99.90
12446;DHT22;6287;50.984;7.022;2023-01-28T04:09:27;0.10;99.90
12446;DHT22;6287;50.984;7.022;2023-01-28T04:11:52;0.10;99.90
12446;DHT22;6287;50.984;7.022;2023-01-28T04:14:18;0.10;99.90
12446;DHT22;6287;50.984;7.022;2023-01-28T04:16:46;0.00;99.90
12446;DHT22;6287;50.984;7.022;2023-01-28T04:19:11;0.00;99.90
12446;DHT22;6287;50.984;7.022;2023-01-28T04:21:38;0.00;99.90
12446;DHT22;6287;50.984;7.022;2023-01-28T04:24:06;0.10;99.90
12446;DHT22;6287;50.984;7.022;2023-01-28T04:26:32;0.10;99.90
12446;DHT22;6287;50.984;7.022;2023-01-28T04:28:58;0.10;99.90
12446;DHT22;6287;50.984;7.022;2023-01-28T04:31:23;0.10;99.90
12446;DHT22;6287;50.984;7.022;2023-01-28T04:33:54;0.10;99.90
12446;DHT22;6287;50.984;7.022;2023-01-28T04:36:19;0.10;99.90
12446;DHT22;6287;50.984;7.022;2023-01-28T04:38:52;0.10;99.90
12446;DHT22;6287;50.984;7.022;2023-01-28T04:41:17;0.10;99.90
12446;DHT22;6287;50.984;7.022;2023-01-28T04:43:48;0.10;99.90
12446;DHT22;6287;50.984;7.022;2023-01-28T04:46:18;0.20;99.90
12446;DHT22;6287;50.984;7.022;2023-01-28T04:48:44;0.20;99.90
12446;DHT22;6287;50.984;7.022;2023-01-28T04:51:09;0.20;99.90
12446;DHT22;6287;50.984;7.022;2023-01-28T04:53:35;0.30;99.90
12446;DHT22;6287;50.984;7.022;2023-01-28T04:56:01;0.30;99.90
12446;DHT22;6287;50.984;7.022;2023-01-28T04:58:26;0.40;99.90
12446;DHT22;6287;50.984;7.022;2023-01-28T05:00:55;0.40;99.90
12446;DHT22;6287;50.984;7.022;2023-01-28T05:03:23;0.50;99.90
12446;DHT22;6287;50.984;7.022;2023-01-28T05:05:52;0.50;99.90
12446;DHT22;6287;50.984;7.022;2023-01-28T05:08:19;0.50;99.90
12446;DHT22;6287;50.984;7.022;2023-01-28T05:10:49;0.60;99.90
12446;DHT22;6287;50.984;7.022;2023-01-28T05:13:15;0.60;99.90
12446;DHT22;6287;50.984;7.022;2023-01-28T05:15:41;0.70;99.90
12446;DHT22;6287;50.984;7.022;2023-01-28T05:18:06;0.70;99.90
12446;DHT22;6287;50.984;7.022;2023-01-28T05:20:34;0.80;99.90
12446;DHT22;6287;50.984;7.022;2023-01-28T05:22:59;0.80;99.90
12446;DHT22;6287;50.984;7.022;2023-01-28T05:25:25;0.90;99.90
12446;DHT22;6287;50.984;7.022;2023-01-28T05:27:52;0.90;99.90
12446;DHT22;6287;50.984;7.022;2023-01-28T05:30:25;1.00;99.90
12446;DHT22;6287;50.984;7.022;2023-01-28T05:32:56;1.00;99.90
12446;DHT22;6287;50.984;7.022;2023-01-28T05:35:21;1.00;99.90
12446;DHT22;6287;50.984;7.022;2023-01-28T05:37:47;1.10;99.90
12446;DHT22;6287;50.984;7.022;2023-01-28T05:40:13;1.10;99.90
12446;DHT22;6287;50.984;7.022;2023-01-28T05:42:41;1.10;99.90
12446;DHT22;6287;50.984;7.022;2023-01-28T05:45:09;1.20;99.90
12446;DHT22;6287;50.984;7.022;2023-01-28T05:47:35;1.20;99.90
12446;DHT22;6287;50.984;7.022;2023-01-28T05:50:00;1.20;99.90
12446;DHT22;6287;50.984;7.022;2023-01-28T05:52:29;1.20;99.90
12446;DHT22;6287;50.984;7.022;2023-01-28T05:54:54;1.20;99.90
12446;DHT22;6287;50.984;7.022;2023-01-28T05:57:20;1.20;99.90
12446;DHT22;6287;50.984;7.022;2023-01-28T05:59:45;1.30;99.90
12446;DHT22;6287;50.984;7.022;2023-01-28T06:02:13;1.30;99.90
12446;DHT22;6287;50.984;7.022;2023-01-28T06:04:39;1.30;99.90
12446;DHT22;6287;50.984;7.022;2023-01-28T06:07:04;1.30;99.90
12446;DHT22;6287;50.984;7.022;2023-01-28T06:09:30;1.30;99.90
12446;DHT22;6287;50.984;7.022;2023-01-28T06:11:58;1.30;99.90
12446;DHT22;6287;50.984;7.022;2023-01-28T06:14:23;1.30;99.90
12446;DHT22;6287;50.984;7.022;2023-01-28T06:16:51;1.30;99.90
12446;DHT22;6287;50.984;7.022;2023-01-28T06:19:17;1.30;99.90
12446;DHT22;6287;50.984;7.022;2023-01-28T06:21:43;1.40;99.90
12446;DHT22;6287;50.984;7.022;2023-01-28T06:24:11;1.40;99.90
12446;DHT22;6287;50.984;7.022;2023-01-28T06:26:38;1.40;99.90
12446;DHT22;6287;50.984;7.022;2023-01-28T06:29:04;1.40;99.90
12446;DHT22;6287;50.984;7.022;2023-01-28T06:31:32;1.40;99.90
12446;DHT22;6287;50.984;7.022;2023-01-28T06:34:00;1.50;99.90
12446;DHT22;6287;50.984;7.022;2023-01-28T06:36:25;1.40;99.90
12446;DHT22;6287;50.984;7.022;2023-01-28T06:38:51;1.50;99.90
12446;DHT22;6287;50.984;7.022;2023-01-28T06:41:19;1.50;99.90
12446;DHT22;6287;50.984;7.022;2023-01-28T06:43:47;1.50;99.90
12446;DHT22;6287;50.984;7.022;2023-01-28T06:46:15;1.50;99.90
12446;DHT22;6287;50.984;7.022;2023-01-28T06:48:41;1.50;99.90
12446;DHT22;6287;50.984;7.022;2023-01-28T06:51:06;1.50;99.90
12446;DHT22;6287;50.984;7.022;2023-01-28T06:53:34;1.50;99.90
12446;DHT22;6287;50.984;7.022;2023-01-28T06:56:02;1.60;99.90
12446;DHT22;6287;50.984;7.022;2023-01-28T06:58:33;1.60;99.90
12446;DHT22;6287;50.984;7.022;2023-01-28T07:01:01;1.50;99.90
12446;DHT22;6287;50.984;7.022;2023-01-28T07:03:29;1.50;99.90
12446;DHT22;6287;50.984;7.022;2023-01-28T07:05:57;1.50;99.90
12446;DHT22;6287;50.984;7.022;2023-01-28T07:08:22;1.60;99.90
12446;DHT22;6287;50.984;7.022;2023-01-28T07:10:48;1.50;99.90
12446;DHT22;6287;50.984;7.022;2023-01-28T07:13:14;1.60;99.90
12446;DHT22;6287;50.984;7.022;2023-01-28T07:15:39;1.60;99.90
12446;DHT22;6287;50.984;7.022;2023-01-28T07:18:05;1.60;99.90
12446;DHT22;6287;50.984;7.022;2023-01-28T07:20:30;1.60;99.90
12446;DHT22;6287;50.984;7.022;2023-01-28T07:22:56;1.60;99.90
12446;DHT22;6287;50.984;7.022;2023-01-28T07:25:24;1.60;99.90
12446;DHT22;6287;50.984;7.022;2023-01-28T07:27:51;1.60;99.90
12446;DHT22;6287;50.984;7.022;2023-01-28T07:30:18;1.50;99.90
12446;DHT22;6287;50.984;7.022;2023-01-28T07:32:51;1.60;99.90
12446;DHT22;6287;50.984;7.022;2023-01-28T07:35:19;1.60;99.90
12446;DHT22;6287;50.984;7.022;2023-01-28T07:37:56;1.60;99.90
12446;DHT22;6287;50.984;7.022;2023-01-28T07:40:22;1.60;99.90
12446;DHT22;6287;50.984;7.022;2023-01-28T07:42:48;1.60;99.90
12446;DHT22;6287;50.984;7.022;2023-01-28T07:45:14;1.60;99.90
12446;DHT22;6287;50.984;7.022;2023-01-28T07:47:43;1.60;99.90
12446;DHT22;6287;50.984;7.022;2023-01-28T07:50:10;1.60;99.90
12446;DHT22;6287;50.984;7.022;2023-01-28T07:52:38;1.60;99.90
12446;DHT22;6287;50.984;7.022;2023-01-28T07:55:11;1.60;99.90
12446;DHT22;6287;50.984;7.022;2023-01-28T07:57:53;1.70;99.90
12446;DHT22;6287;50.984;7.022;2023-01-28T08:00:21;1.80;99.90
12446;DHT22;6287;50.984;7.022;2023-01-28T08:02:47;1.80;99.90
12446;DHT22;6287;50.984;7.022;2023-01-28T08:05:17;1.80;99.90
12446;DHT22;6287;50.984;7.022;2023-01-28T08:07:44;1.90;99.90
12446;DHT22;6287;50.984;7.022;2023-01-28T08:10:11;1.90;99.90
12446;DHT22;6287;50.984;7.022;2023-01-28T08:12:39;1.90;99.90
12446;DHT22;6287;50.984;7.022;2023-01-28T08:15:08;2.00;99.90
12446;DHT22;6287;50.984;7.022;2023-01-28T08:17:34;2.00;99.90
12446;DHT22;6287;50.984;7.022;2023-01-28T08:19:59;2.00;99.90
12446;DHT22;6287;50.984;7.022;2023-01-28T08:22:26;2.00;99.90
12446;DHT22;6287;50.984;7.022;2023-01-28T08:24:51;2.00;99.90
12446;DHT22;6287;50.984;7.022;2023-01-28T08:27:19;2.00;99.90
12446;DHT22;6287;50.984;7.022;2023-01-28T08:29:48;2.00;99.90
12446;DHT22;6287;50.984;7.022;2023-01-28T08:32:13;2.10;99.90
12446;DHT22;6287;50.984;7.022;2023-01-28T08:34:41;2.10;99.90
12446;DHT22;6287;50.984;7.022;2023-01-28T08:37:07;2.10;99.90
12446;DHT22;6287;50.984;7.022;2023-01-28T08:39:32;2.10;99.90
12446;DHT22;6287;50.984;7.022;2023-01-28T08:41:58;2.10;99.90
12446;DHT22;6287;50.984;7.022;2023-01-28T08:44:23;2.10;99.90
12446;DHT22;6287;50.984;7.022;2023-01-28T08:46:49;2.20;99.90
12446;DHT22;6287;50.984;7.022;2023-01-28T08:49:14;2.20;99.90
12446;DHT22;6287;50.984;7.022;2023-01-28T08:51:43;2.20;99.90
12446;DHT22;6287;50.984;7.022;2023-01-28T08:54:08;2.30;99.90
12446;DHT22;6287;50.984;7.022;2023-01-28T08:56:36;2.30;99.90
12446;DHT22;6287;50.984;7.022;2023-01-28T08:59:09;2.30;99.90
12446;DHT22;6287;50.984;7.022;2023-01-28T09:01:39;2.30;99.90
12446;DHT22;6287;50.984;7.022;2023-01-28T09:04:05;2.30;99.90
12446;DHT22;6287;50.984;7.022;2023-01-28T09:06:31;2.40;99.90
12446;DHT22;6287;50.984;7.022;2023-01-28T09:08:58;2.40;99.90
12446;DHT22;6287;50.984;7.022;2023-01-28T09:11:26;2.40;99.90
12446;DHT22;6287;50.984;7.022;2023-01-28T09:13:55;2.50;99.90
12446;DHT22;6287;50.984;7.022;2023-01-28T09:16:23;2.50;99.90
12446;DHT22;6287;50.984;7.022;2023-01-28T09:18:49;2.50;99.90
12446;DHT22;6287;50.984;7.022;2023-01-28T09:21:16;2.50;99.90
12446;DHT22;6287;50.984;7.022;2023-01-28T09:23:41;2.60;99.90
12446;DHT22;6287;50.984;7.022;2023-01-28T09:26:07;2.60;99.90
12446;DHT22;6287;50.984;7.022;2023-01-28T09:28:33;2.60;99.90
12446;DHT22;6287;50.984;7.022;2023-01-28T09:31:10;2.60;99.90
12446;DHT22;6287;50.984;7.022;2023-01-28T09:33:37;6.00;99.90
12446;DHT22;6287;50.984;7.022;2023-01-28T09:36:05;2.60;99.90
12446;DHT22;6287;50.984;7.022;2023-01-28T09:38:31;2.60;99.90
12446;DHT22;6287;50.984;7.022;2023-01-28T09:41:02;2.60;99.90
12446;DHT22;6287;50.984;7.022;2023-01-28T09:46:10;2.70;99.90
12446;DHT22;6287;50.984;7.022;2023-01-28T09:48:48;2.70;99.90
12446;DHT22;6287;50.984;7.022;2023-01-28T09:51:35;2.70;99.90
12446;DHT22;6287;50.984;7.022;2023-01-28T09:54:20;2.70;99.90
12446;DHT22;6287;50.984;7.022;2023-01-28T09:56:52;2.70;99.90
12446;DHT22;6287;50.984;7.022;2023-01-28T09:59:23;2.70;99.90
12446;DHT22;6287;50.984;7.022;2023-01-28T10:01:59;2.80;99.90
12446;DHT22;6287;50.984;7.022;2023-01-28T10:10:27;2.70;99.90
12446;DHT22;6287;50.984;7.022;2023-01-28T10:16:15;2.70;99.90
12446;DHT22;6287;50.984;7.022;2023-01-28T10:24:32;2.90;99.90
12446;DHT22;6287;50.984;7.022;2023-01-28T10:27:02;3.00;99.90
12446;DHT22;6287;50.984;7.022;2023-01-28T10:29:37;3.00;99.90
12446;DHT22;6287;50.984;7.022;2023-01-28T10:34:38;3.10;99.90
12446;DHT22;6287;50.984;7.022;2023-01-28T10:37:04;3.10;99.90
12446;DHT22;6287;50.984;7.022;2023-01-28T10:39:35;5.30;99.90
12446;DHT22;6287;50.984;7.022;2023-01-28T10:42:00;3.20;99.90
12446;DHT22;6287;50.984;7.022;2023-01-28T10:44:34;3.30;99.90
12446;DHT22;6287;50.984;7.022;2023-01-28T10:47:08;3.30;99.90
12446;DHT22;6287;50.984;7.022;2023-01-28T10:49:48;3.30;99.90
12446;DHT22;6287;50.984;7.022;2023-01-28T10:52:19;3.30;99.90
12446;DHT22;6287;50.984;7.022;2023-01-28T10:55:00;3.40;99.90
12446;DHT22;6287;50.984;7.022;2023-01-28T10:57:26;3.40;99.90
12446;DHT22;6287;50.984;7.022;2023-01-28T10:59:52;3.40;99.90
12446;DHT22;6287;50.984;7.022;2023-01-28T11:02:32;3.30;99.90
12446;DHT22;6287;50.984;7.022;2023-01-28T11:05:15;3.30;99.90
12446;DHT22;6287;50.984;7.022;2023-01-28T11:07:44;3.30;99.90
12446;DHT22;6287;50.984;7.022;2023-01-28T11:10:35;3.30;99.90
12446;DHT22;6287;50.984;7.022;2023-01-28T11:13:03;3.30;99.90
12446;DHT22;6287;50.984;7.022;2023-01-28T11:15:30;3.30;99.90
12446;DHT22;6287;50.984;7.022;2023-01-28T11:18:03;3.30;99.90
12446;DHT22;6287;50.984;7.022;2023-01-28T11:20:37;3.40;99.90
12446;DHT22;6287;50.984;7.022;2023-01-28T11:23:03;3.30;99.90
12446;DHT22;6287;50.984;7.022;2023-01-28T11:25:32;3.30;99.90
12446;DHT22;6287;50.984;7.022;2023-01-28T11:28:03;3.30;99.90
12446;DHT22;6287;50.984;7.022;2023-01-28T11:30:34;3.30;99.90
12446;DHT22;6287;50.984;7.022;2023-01-28T11:33:25;3.30;99.90
12446;DHT22;6287;50.984;7.022;2023-01-28T11:36:02;3.30;99.90
12446;DHT22;6287;50.984;7.022;2023-01-28T11:38:32;3.40;99.90
12446;DHT22;6287;50.984;7.022;2023-01-28T11:40:58;3.40;99.90
12446;DHT22;6287;50.984;7.022;2023-01-28T11:43:27;3.40;99.90
12446;DHT22;6287;50.984;7.022;2023-01-28T11:48:43;3.30;99.90
12446;DHT22;6287;50.984;7.022;2023-01-28T12:08:04;3.30;99.90
12446;DHT22;6287;50.984;7.022;2023-01-28T12:13:41;3.40;99.90
12446;DHT22;6287;50.984;7.022;2023-01-28T12:21:41;3.40;99.90
12446;DHT22;6287;50.984;7.022;2023-01-28T12:38:49;3.50;99.90
12446;DHT22;6287;50.984;7.022;2023-01-28T12:41:21;3.60;99.90
12446;DHT22;6287;50.984;7.022;2023-01-28T12:44:04;3.70;99.90
12446;DHT22;6287;50.984;7.022;2023-01-28T12:46:46;3.70;99.90
12446;DHT22;6287;50.984;7.022;2023-01-28T12:51:55;3.70;99.90
12446;DHT22;6287;50.984;7.022;2023-01-28T12:54:44;3.70;99.90
12446;DHT22;6287;50.984;7.022;2023-01-28T12:57:30;3.80;99.90
12446;DHT22;6287;50.984;7.022;2023-01-28T13:00:22;3.80;99.90
12446;DHT22;6287;50.984;7.022;2023-01-28T13:05:37;3.90;99.90
12446;DHT22;6287;50.984;7.022;2023-01-28T13:08:33;4.00;99.90
12446;DHT22;6287;50.984;7.022;2023-01-28T13:11:01;3.90;99.90
12446;DHT22;6287;50.984;7.022;2023-01-28T13:15:57;3.70;99.90
12446;DHT22;6287;50.984;7.022;2023-01-28T13:20:55;3.70;99.90
12446;DHT22;6287;50.984;7.022;2023-01-28T13:25:56;7.80;99.90
12446;DHT22;6287;50.984;7.022;2023-01-28T13:28:27;4.20;99.90
12446;DHT22;6287;50.984;7.022;2023-01-28T13:31:01;4.50;99.90
12446;DHT22;6287;50.984;7.022;2023-01-28T13:33:36;4.70;99.90
12446;DHT22;6287;50.984;7.022;2023-01-28T13:36:24;4.70;99.90
12446;DHT22;6287;50.984;7.022;2023-01-28T13:41:49;5.40;99.40
12446;DHT22;6287;50.984;7.022;2023-01-28T13:44:31;5.50;98.40
12446;DHT22;6287;50.984;7.022;2023-01-28T13:52:05;5.40;97.80
12446;DHT22;6287;50.984;7.022;2023-01-28T13:54:35;5.40;97.50
12446;DHT22;6287;50.984;7.022;2023-01-28T14:05:23;5.10;99.00
12446;DHT22;6287;50.984;7.022;2023-01-28T14:18:51;4.80;99.90
12446;DHT22;6287;50.984;7.022;2023-01-28T14:21:26;4.70;99.90
12446;DHT22;6287;50.984;7.022;2023-01-28T14:23:54;4.70;99.90
12446;DHT22;6287;50.984;7.022;2023-01-28T14:31:40;4.50;99.80
12446;DHT22;6287;50.984;7.022;2023-01-28T14:36:50;4.40;99.90
12446;DHT22;6287;50.984;7.022;2023-01-28T14:39:25;4.30;99.90
12446;DHT22;6287;50.984;7.022;2023-01-28T14:41:53;4.10;99.90
12446;DHT22;6287;50.984;7.022;2023-01-28T14:44:27;4.00;99.90
12446;DHT22;6287;50.984;7.022;2023-01-28T14:58:05;3.50;99.90
12446;DHT22;6287;50.984;7.022;2023-01-28T15:00:34;3.40;99.90
12446;DHT22;6287;50.984;7.022;2023-01-28T15:03:24;3.30;99.90
12446;DHT22;6287;50.984;7.022;2023-01-28T15:06:22;3.10;99.90
12446;DHT22;6287;50.984;7.022;2023-01-28T15:08:49;3.00;99.90
12446;DHT22;6287;50.984;7.022;2023-01-28T15:11:24;2.90;99.90
12446;DHT22;6287;50.984;7.022;2023-01-28T15:13:58;2.90;99.90
12446;DHT22;6287;50.984;7.022;2023-01-28T15:16:26;2.90;99.90
12446;DHT22;6287;50.984;7.022;2023-01-28T15:18:54;2.90;99.90
12446;DHT22;6287;50.984;7.022;2023-01-28T15:21:24;2.90;99.90
12446;DHT22;6287;50.984;7.022;2023-01-28T15:23:59;2.80;99.90
12446;DHT22;6287;50.984;7.022;2023-01-28T15:26:32;2.70;99.90
12446;DHT22;6287;50.984;7.022;2023-01-28T15:29:00;2.70;99.90
12446;DHT22;6287;50.984;7.022;2023-01-28T15:31:34;2.70;99.90
12446;DHT22;6287;50.984;7.022;2023-01-28T15:34:13;2.60;99.90
12446;DHT22;6287;50.984;7.022;2023-01-28T15:36:41;2.60;99.90
12446;DHT22;6287;50.984;7.022;2023-01-28T15:39:21;2.60;99.90
12446;DHT22;6287;50.984;7.022;2023-01-28T15:42:02;2.50;99.90
12446;DHT22;6287;50.984;7.022;2023-01-28T15:44:30;2.40;99.90
12446;DHT22;6287;50.984;7.022;2023-01-28T15:47:01;2.40;99.90
12446;DHT22;6287;50.984;7.022;2023-01-28T15:49:34;2.30;99.90
12446;DHT22;6287;50.984;7.022;2023-01-28T15:52:03;2.30;99.90
12446;DHT22;6287;50.984;7.022;2023-01-28T15:54:30;2.20;99.90
12446;DHT22;6287;50.984;7.022;2023-01-28T15:59:28;2.00;99.90
12446;DHT22;6287;50.984;7.022;2023-01-28T16:02:20;2.00;99.90
12446;DHT22;6287;50.984;7.022;2023-01-28T16:07:29;1.90;99.90
12446;DHT22;6287;50.984;7.022;2023-01-28T16:09:58;1.80;99.90
12446;DHT22;6287;50.984;7.022;2023-01-28T16:12:25;1.70;99.90
12446;DHT22;6287;50.984;7.022;2023-01-28T16:14:55;1.60;99.90
12446;DHT22;6287;50.984;7.022;2023-01-28T16:17:25;1.50;99.90
12446;DHT22;6287;50.984;7.022;2023-01-28T16:19:58;1.50;99.90
12446;DHT22;6287;50.984;7.022;2023-01-28T16:22:37;4.20;99.90
12446;DHT22;6287;50.984;7.022;2023-01-28T16:27:56;1.30;99.90
12446;DHT22;6287;50.984;7.022;2023-01-28T16:30:22;1.20;99.90
12446;DHT22;6287;50.984;7.022;2023-01-28T16:32:48;1.10;99.90
12446;DHT22;6287;50.984;7.022;2023-01-28T16:35:19;1.00;99.90
12446;DHT22;6287;50.984;7.022;2023-01-28T16:37:48;1.00;99.90
12446;DHT22;6287;50.984;7.022;2023-01-28T16:40:21;0.90;99.90
12446;DHT22;6287;50.984;7.022;2023-01-28T16:42:47;0.90;99.90
12446;DHT22;6287;50.984;7.022;2023-01-28T16:45:17;0.80;99.90
12446;DHT22;6287;50.984;7.022;2023-01-28T16:47:45;0.80;99.90
12446;DHT22;6287;50.984;7.022;2023-01-28T16:50:14;0.80;99.90
12446;DHT22;6287;50.984;7.022;2023-01-28T16:52:41;0.70;99.90
12446;DHT22;6287;50.984;7.022;2023-01-28T16:55:15;0.80;99.90
12446;DHT22;6287;50.984;7.022;2023-01-28T16:57:48;0.80;99.90
12446;DHT22;6287;50.984;7.022;2023-01-28T17:00:21;0.80;99.90
12446;DHT22;6287;50.984;7.022;2023-01-28T17:02:53;0.70;99.90
12446;DHT22;6287;50.984;7.022;2023-01-28T17:05:20;0.80;99.90
12446;DHT22;6287;50.984;7.022;2023-01-28T17:07:49;0.70;99.90
12446;DHT22;6287;50.984;7.022;2023-01-28T17:10:20;0.70;99.90
12446;DHT22;6287;50.984;7.022;2023-01-28T17:12:48;0.70;99.90
12446;DHT22;6287;50.984;7.022;2023-01-28T17:15:18;0.60;99.90
12446;DHT22;6287;50.984;7.022;2023-01-28T17:17:47;0.60;99.90
12446;DHT22;6287;50.984;7.022;2023-01-28T17:20:17;0.50;99.90
12446;DHT22;6287;50.984;7.022;2023-01-28T17:22:45;0.50;99.90
12446;DHT22;6287;50.984;7.022;2023-01-28T17:25:13;0.40;99.90
12446;DHT22;6287;50.984;7.022;2023-01-28T17:27:42;0.40;99.90
12446;DHT22;6287;50.984;7.022;2023-01-28T17:30:08;0.30;99.90
12446;DHT22;6287;50.984;7.022;2023-01-28T17:32:36;0.20;99.90
12446;DHT22;6287;50.984;7.022;2023-01-28T17:35:05;0.10;99.90
12446;DHT22;6287;50.984;7.022;2023-01-28T17:37:30;0.10;99.90
12446;DHT22;6287;50.984;7.022;2023-01-28T17:39:56;0.00;99.90
12446;DHT22;6287;50.984;7.022;2023-01-28T17:42:21;0.00;99.90
12446;DHT22;6287;50.984;7.022;2023-01-28T17:44:49;-0.10;99.90
12446;DHT22;6287;50.984;7.022;2023-01-28T17:47:15;-0.10;99.90
12446;DHT22;6287;50.984;7.022;2023-01-28T17:52:09;-0.20;99.90
12446;DHT22;6287;50.984;7.022;2023-01-28T17:54:36;-0.20;99.90
12446;DHT22;6287;50.984;7.022;2023-01-28T17:57:02;-0.20;99.90
12446;DHT22;6287;50.984;7.022;2023-01-28T17:59:28;-0.30;99.90
12446;DHT22;6287;50.984;7.022;2023-01-28T18:01:56;-0.30;99.90
12446;DHT22;6287;50.984;7.022;2023-01-28T18:04:24;-0.30;99.90
12446;DHT22;6287;50.984;7.022;2023-01-28T18:09:16;-0.30;99.90
12446;DHT22;6287;50.984;7.022;2023-01-28T18:11:48;-0.40;99.90
12446;DHT22;6287;50.984;7.022;2023-01-28T18:14:16;-0.40;99.90
12446;DHT22;6287;50.984;7.022;2023-01-28T18:16:44;-0.40;99.90
12446;DHT22;6287;50.984;7.022;2023-01-28T18:19:11;-0.50;99.90
12446;DHT22;6287;50.984;7.022;2023-01-28T18:21:44;-0.40;99.90
12446;DHT22;6287;50.984;7.022;2023-01-28T18:24:10;-0.50;99.90
12446;DHT22;6287;50.984;7.022;2023-01-28T18:26:38;-0.40;99.90
12446;DHT22;6287;50.984;7.022;2023-01-28T18:29:06;-0.40;99.90
12446;DHT22;6287;50.984;7.022;2023-01-28T18:31:36;-0.40;99.90
12446;DHT22;6287;50.984;7.022;2023-01-28T18:34:02;-0.40;99.90
12446;DHT22;6287;50.984;7.022;2023-01-28T18:36:31;-0.60;99.90
12446;DHT22;6287;50.984;7.022;2023-01-28T18:38:56;-0.50;99.90
12446;DHT22;6287;50.984;7.022;2023-01-28T18:41:22;-0.60;99.90
12446;DHT22;6287;50.984;7.022;2023-01-28T18:43:52;-0.60;99.90
12446;DHT22;6287;50.984;7.022;2023-01-28T18:46:21;-0.60;99.90
12446;DHT22;6287;50.984;7.022;2023-01-28T18:48:48;-0.60;99.90
12446;DHT22;6287;50.984;7.022;2023-01-28T18:51:16;-0.60;99.90